House Creek, Missouri
Current Conditions -  °F | °C
As of 4:53 PM on Saturday 25 Oct 2014 (Local Time) from KPOF Reporting Station
Haze Haze  
Wind Chill: 82°   Ceiling: Unl
Heat Index: 83°   Visibility: 5mi
Dew Point: 63°   Wind: 6mph
Humidity: 52%   Direction: 200°SSW
Pressure: 29.99"   Gusts: NA
Location:  36.9608°N, 90.9923°W
Report Text: KPOF 252153Z AUTO 20005KT 5SM HZ CLR 28/17 A2999 RMK AO2 SLP151 T02780172
Loading
Personal Weather Stations






























Interactive Weather Map
Tropical Storm Tracking
New forecast layout! Learn more

10-Day Weather Forecast

Advertisements
Track Severe Weather on mobile